sensor_id;sensor_type;location;lat;lon;timestamp;P1;durP1;ratioP1;P2;durP2;ratioP2
1777;SDS011;71547;50.146;8.174;2024-02-21T00:02:04;13.87;;;5.57;;
1777;SDS011;71547;50.146;8.174;2024-02-21T00:04:31;8.40;;;5.20;;
1777;SDS011;71547;50.146;8.174;2024-02-21T00:06:59;8.40;;;4.60;;
1777;SDS011;71547;50.146;8.174;2024-02-21T00:09:26;6.60;;;5.25;;
1777;SDS011;71547;50.146;8.174;2024-02-21T00:11:53;11.10;;;5.13;;
1777;SDS011;71547;50.146;8.174;2024-02-21T00:14:21;7.20;;;5.50;;
1777;SDS011;71547;50.146;8.174;2024-02-21T00:16:51;7.15;;;4.80;;
1777;SDS011;71547;50.146;8.174;2024-02-21T00:19:19;7.37;;;4.40;;
1777;SDS011;71547;50.146;8.174;2024-02-21T00:21:46;10.27;;;4.72;;
1777;SDS011;71547;50.146;8.174;2024-02-21T00:24:13;9.60;;;5.25;;
1777;SDS011;71547;50.146;8.174;2024-02-21T00:26:40;8.40;;;5.07;;
1777;SDS011;71547;50.146;8.174;2024-02-21T00:29:07;13.50;;;5.85;;
1777;SDS011;71547;50.146;8.174;2024-02-21T00:31:34;8.60;;;4.67;;
1777;SDS011;71547;50.146;8.174;2024-02-21T00:34:03;11.27;;;4.68;;
1777;SDS011;71547;50.146;8.174;2024-02-21T00:36:30;8.55;;;4.40;;
1777;SDS011;71547;50.146;8.174;2024-02-21T00:38:57;9.43;;;5.33;;
1777;SDS011;71547;50.146;8.174;2024-02-21T00:41:24;6.87;;;4.40;;
1777;SDS011;71547;50.146;8.174;2024-02-21T00:43:51;7.97;;;4.10;;
1777;SDS011;71547;50.146;8.174;2024-02-21T00:46:18;7.43;;;4.88;;
1777;SDS011;71547;50.146;8.174;2024-02-21T00:48:45;9.30;;;4.75;;
1777;SDS011;71547;50.146;8.174;2024-02-21T00:51:14;9.40;;;5.00;;
1777;SDS011;71547;50.146;8.174;2024-02-21T00:53:42;6.00;;;4.47;;
1777;SDS011;71547;50.146;8.174;2024-02-21T00:56:09;9.27;;;4.70;;
1777;SDS011;71547;50.146;8.174;2024-02-21T00:58:36;9.65;;;4.45;;
1777;SDS011;71547;50.146;8.174;2024-02-21T01:01:03;11.73;;;4.75;;
1777;SDS011;71547;50.146;8.174;2024-02-21T01:03:30;10.38;;;4.55;;
1777;SDS011;71547;50.146;8.174;2024-02-21T01:05:57;7.20;;;4.63;;
1777;SDS011;71547;50.146;8.174;2024-02-21T01:08:26;7.83;;;4.70;;
1777;SDS011;71547;50.146;8.174;2024-02-21T01:10:53;8.43;;;5.87;;
1777;SDS011;71547;50.146;8.174;2024-02-21T01:13:20;11.03;;;5.00;;
1777;SDS011;71547;50.146;8.174;2024-02-21T01:15:47;10.13;;;4.10;;
1777;SDS011;71547;50.146;8.174;2024-02-21T01:18:14;5.90;;;4.50;;
1777;SDS011;71547;50.146;8.174;2024-02-21T01:20:41;9.47;;;4.40;;
1777;SDS011;71547;50.146;8.174;2024-02-21T01:23:08;11.03;;;5.07;;
1777;SDS011;71547;50.146;8.174;2024-02-21T01:25:37;8.13;;;4.40;;
1777;SDS011;71547;50.146;8.174;2024-02-21T01:28:04;10.23;;;4.77;;
1777;SDS011;71547;50.146;8.174;2024-02-21T01:30:31;5.30;;;4.80;;
1777;SDS011;71547;50.146;8.174;2024-02-21T01:32:58;5.20;;;3.90;;
1777;SDS011;71547;50.146;8.174;2024-02-21T01:35:26;13.27;;;5.23;;
1777;SDS011;71547;50.146;8.174;2024-02-21T01:37:53;6.20;;;3.33;;
1777;SDS011;71547;50.146;8.174;2024-02-21T01:40:20;9.50;;;4.70;;
1777;SDS011;71547;50.146;8.174;2024-02-21T01:42:49;11.13;;;5.15;;
1777;SDS011;71547;50.146;8.174;2024-02-21T01:45:16;5.77;;;4.23;;
1777;SDS011;71547;50.146;8.174;2024-02-21T01:47:44;11.77;;;4.80;;
1777;SDS011;71547;50.146;8.174;2024-02-21T01:50:12;8.30;;;4.30;;
1777;SDS011;71547;50.146;8.174;2024-02-21T01:52:41;6.50;;;4.60;;
1777;SDS011;71547;50.146;8.174;2024-02-21T01:55:09;5.07;;;4.20;;
1777;SDS011;71547;50.146;8.174;2024-02-21T01:57:39;10.95;;;5.28;;
1777;SDS011;71547;50.146;8.174;2024-02-21T02:00:09;6.77;;;4.20;;
1777;SDS011;71547;50.146;8.174;2024-02-21T02:02:39;10.55;;;4.82;;
1777;SDS011;71547;50.146;8.174;2024-02-21T02:05:08;6.65;;;4.10;;
1777;SDS011;71547;50.146;8.174;2024-02-21T02:07:35;7.40;;;4.77;;
1777;SDS011;71547;50.146;8.174;2024-02-21T02:10:03;7.85;;;4.15;;
1777;SDS011;71547;50.146;8.174;2024-02-21T02:12:31;8.50;;;5.03;;
1777;SDS011;71547;50.146;8.174;2024-02-21T02:14:59;9.40;;;4.03;;
1777;SDS011;71547;50.146;8.174;2024-02-21T02:17:28;8.05;;;4.15;;
1777;SDS011;71547;50.146;8.174;2024-02-21T02:19:55;8.47;;;4.10;;
1777;SDS011;71547;50.146;8.174;2024-02-21T02:22:25;4.70;;;3.87;;
1777;SDS011;71547;50.146;8.174;2024-02-21T02:24:57;7.13;;;4.03;;
1777;SDS011;71547;50.146;8.174;2024-02-21T02:27:24;9.73;;;4.93;;
1777;SDS011;71547;50.146;8.174;2024-02-21T02:29:52;7.60;;;3.93;;
1777;SDS011;71547;50.146;8.174;2024-02-21T02:32:19;12.63;;;4.32;;
1777;SDS011;71547;50.146;8.174;2024-02-21T02:34:46;9.40;;;4.60;;
1777;SDS011;71547;50.146;8.174;2024-02-21T02:37:13;11.02;;;4.57;;
1777;SDS011;71547;50.146;8.174;2024-02-21T02:39:41;5.53;;;3.70;;
1777;SDS011;71547;50.146;8.174;2024-02-21T02:42:10;6.70;;;3.70;;
1777;SDS011;71547;50.146;8.174;2024-02-21T02:44:37;7.78;;;4.22;;
1777;SDS011;71547;50.146;8.174;2024-02-21T02:47:04;6.80;;;4.40;;
1777;SDS011;71547;50.146;8.174;2024-02-21T02:49:31;7.00;;;4.55;;
1777;SDS011;71547;50.146;8.174;2024-02-21T02:51:58;6.93;;;4.50;;
1777;SDS011;71547;50.146;8.174;2024-02-21T02:54:25;6.03;;;4.43;;
1777;SDS011;71547;50.146;8.174;2024-02-21T02:56:52;7.70;;;4.65;;
1777;SDS011;71547;50.146;8.174;2024-02-21T02:59:21;8.35;;;4.07;;
1777;SDS011;71547;50.146;8.174;2024-02-21T03:01:48;8.43;;;4.17;;
1777;SDS011;71547;50.146;8.174;2024-02-21T03:04:15;9.63;;;4.37;;
1777;SDS011;71547;50.146;8.174;2024-02-21T03:06:42;12.13;;;4.43;;
1777;SDS011;71547;50.146;8.174;2024-02-21T03:09:09;6.43;;;4.37;;
1777;SDS011;71547;50.146;8.174;2024-02-21T03:11:36;9.60;;;4.68;;
1777;SDS011;71547;50.146;8.174;2024-02-21T03:14:05;8.95;;;4.68;;
1777;SDS011;71547;50.146;8.174;2024-02-21T03:16:33;10.15;;;5.72;;
1777;SDS011;71547;50.146;8.174;2024-02-21T03:19:01;7.67;;;4.77;;
1777;SDS011;71547;50.146;8.174;2024-02-21T03:21:28;11.00;;;4.63;;
1777;SDS011;71547;50.146;8.174;2024-02-21T03:23:55;7.70;;;4.27;;
1777;SDS011;71547;50.146;8.174;2024-02-21T03:26:22;10.63;;;4.50;;
1777;SDS011;71547;50.146;8.174;2024-02-21T03:28:49;9.13;;;5.30;;
1777;SDS011;71547;50.146;8.174;2024-02-21T03:31:16;8.75;;;5.07;;
1777;SDS011;71547;50.146;8.174;2024-02-21T03:33:45;16.60;;;5.43;;
1777;SDS011;71547;50.146;8.174;2024-02-21T03:36:15;9.25;;;4.50;;
1777;SDS011;71547;50.146;8.174;2024-02-21T03:38:43;5.97;;;4.70;;
1777;SDS011;71547;50.146;8.174;2024-02-21T03:41:11;5.77;;;4.43;;
1777;SDS011;71547;50.146;8.174;2024-02-21T03:43:38;11.93;;;5.10;;
1777;SDS011;71547;50.146;8.174;2024-02-21T03:46:05;5.05;;;3.63;;
1777;SDS011;71547;50.146;8.174;2024-02-21T03:48:33;5.88;;;4.47;;
1777;SDS011;71547;50.146;8.174;2024-02-21T03:51:02;8.13;;;4.40;;
1777;SDS011;71547;50.146;8.174;2024-02-21T03:53:30;12.15;;;4.55;;
1777;SDS011;71547;50.146;8.174;2024-02-21T03:55:57;9.23;;;5.20;;
1777;SDS011;71547;50.146;8.174;2024-02-21T03:58:29;9.65;;;5.05;;
1777;SDS011;71547;50.146;8.174;2024-02-21T04:00:56;10.18;;;4.47;;
1777;SDS011;71547;50.146;8.174;2024-02-21T04:03:23;7.80;;;5.20;;
1777;SDS011;71547;50.146;8.174;2024-02-21T04:06:09;7.32;;;4.20;;
1777;SDS011;71547;50.146;8.174;2024-02-21T04:08:36;5.30;;;4.60;;
1777;SDS011;71547;50.146;8.174;2024-02-21T04:11:03;10.43;;;4.93;;
1777;SDS011;71547;50.146;8.174;2024-02-21T04:13:30;12.30;;;4.50;;
1777;SDS011;71547;50.146;8.174;2024-02-21T04:15:57;4.07;;;3.70;;
1777;SDS011;71547;50.146;8.174;2024-02-21T04:18:25;8.13;;;4.57;;
1777;SDS011;71547;50.146;8.174;2024-02-21T04:20:52;7.82;;;4.47;;
1777;SDS011;71547;50.146;8.174;2024-02-21T04:23:23;12.63;;;5.57;;
1777;SDS011;71547;50.146;8.174;2024-02-21T04:25:50;11.98;;;4.78;;
1777;SDS011;71547;50.146;8.174;2024-02-21T04:28:17;5.30;;;3.80;;
1777;SDS011;71547;50.146;8.174;2024-02-21T04:30:44;7.97;;;4.85;;
1777;SDS011;71547;50.146;8.174;2024-02-21T04:33:11;7.97;;;4.32;;
1777;SDS011;71547;50.146;8.174;2024-02-21T04:35:39;8.05;;;5.00;;
1777;SDS011;71547;50.146;8.174;2024-02-21T04:38:06;10.23;;;3.93;;
1777;SDS011;71547;50.146;8.174;2024-02-21T04:40:34;5.57;;;4.60;;
1777;SDS011;71547;50.146;8.174;2024-02-21T04:43:02;11.95;;;5.95;;
1777;SDS011;71547;50.146;8.174;2024-02-21T04:45:29;8.43;;;4.65;;
1777;SDS011;71547;50.146;8.174;2024-02-21T04:47:57;9.98;;;5.20;;
1777;SDS011;71547;50.146;8.174;2024-02-21T04:50:24;7.25;;;4.20;;
1777;SDS011;71547;50.146;8.174;2024-02-21T04:52:51;14.40;;;4.90;;
1777;SDS011;71547;50.146;8.174;2024-02-21T04:55:18;9.93;;;6.28;;
1777;SDS011;71547;50.146;8.174;2024-02-21T04:57:47;8.23;;;4.95;;
1777;SDS011;71547;50.146;8.174;2024-02-21T05:00:14;8.32;;;4.93;;
1777;SDS011;71547;50.146;8.174;2024-02-21T05:02:42;9.07;;;4.43;;
1777;SDS011;71547;50.146;8.174;2024-02-21T05:05:09;9.02;;;4.45;;
1777;SDS011;71547;50.146;8.174;2024-02-21T05:07:36;4.82;;;4.20;;
1777;SDS011;71547;50.146;8.174;2024-02-21T05:10:06;7.70;;;4.28;;
1777;SDS011;71547;50.146;8.174;2024-02-21T05:12:35;11.43;;;4.70;;
1777;SDS011;71547;50.146;8.174;2024-02-21T05:15:05;10.05;;;4.10;;
1777;SDS011;71547;50.146;8.174;2024-02-21T05:17:33;10.40;;;4.47;;
1777;SDS011;71547;50.146;8.174;2024-02-21T05:20:00;6.53;;;4.47;;
1777;SDS011;71547;50.146;8.174;2024-02-21T05:22:27;8.57;;;4.22;;
1777;SDS011;71547;50.146;8.174;2024-02-21T05:24:55;8.60;;;3.95;;
1777;SDS011;71547;50.146;8.174;2024-02-21T05:27:22;11.52;;;4.03;;
1777;SDS011;71547;50.146;8.174;2024-02-21T05:29:49;7.60;;;4.25;;
1777;SDS011;71547;50.146;8.174;2024-02-21T05:32:17;14.63;;;4.40;;
1777;SDS011;71547;50.146;8.174;2024-02-21T05:34:44;7.05;;;4.00;;
1777;SDS011;71547;50.146;8.174;2024-02-21T05:37:16;7.00;;;4.37;;
1777;SDS011;71547;50.146;8.174;2024-02-21T05:39:43;11.20;;;4.90;;
1777;SDS011;71547;50.146;8.174;2024-02-21T05:42:10;4.68;;;3.85;;
1777;SDS011;71547;50.146;8.174;2024-02-21T05:44:37;14.20;;;4.18;;
1777;SDS011;71547;50.146;8.174;2024-02-21T05:47:04;6.53;;;4.27;;
1777;SDS011;71547;50.146;8.174;2024-02-21T05:49:39;15.57;;;5.45;;
1777;SDS011;71547;50.146;8.174;2024-02-21T05:52:06;9.02;;;4.40;;
1777;SDS011;71547;50.146;8.174;2024-02-21T05:54:33;10.30;;;4.65;;
1777;SDS011;71547;50.146;8.174;2024-02-21T05:57:01;15.80;;;4.68;;
1777;SDS011;71547;50.146;8.174;2024-02-21T05:59:28;10.98;;;4.60;;
1777;SDS011;71547;50.146;8.174;2024-02-21T06:01:57;4.72;;;4.10;;
1777;SDS011;71547;50.146;8.174;2024-02-21T06:04:24;10.75;;;5.05;;
1777;SDS011;71547;50.146;8.174;2024-02-21T06:06:53;11.95;;;5.00;;
1777;SDS011;71547;50.146;8.174;2024-02-21T06:09:20;10.40;;;4.57;;
1777;SDS011;71547;50.146;8.174;2024-02-21T06:11:56;6.90;;;4.70;;
1777;SDS011;71547;50.146;8.174;2024-02-21T06:14:24;10.00;;;5.05;;
1777;SDS011;71547;50.146;8.174;2024-02-21T06:16:51;9.38;;;5.03;;
1777;SDS011;71547;50.146;8.174;2024-02-21T06:19:18;16.33;;;5.80;;
1777;SDS011;71547;50.146;8.174;2024-02-21T06:21:45;12.80;;;5.75;;
1777;SDS011;71547;50.146;8.174;2024-02-21T06:24:14;7.97;;;5.68;;
1777;SDS011;71547;50.146;8.174;2024-02-21T06:26:41;14.00;;;5.72;;
1777;SDS011;71547;50.146;8.174;2024-02-21T06:29:08;15.10;;;5.03;;
1777;SDS011;71547;50.146;8.174;2024-02-21T06:31:35;12.23;;;5.30;;
1777;SDS011;71547;50.146;8.174;2024-02-21T06:34:02;7.15;;;4.40;;
1777;SDS011;71547;50.146;8.174;2024-02-21T06:36:30;8.13;;;5.32;;
1777;SDS011;71547;50.146;8.174;2024-02-21T06:38:58;9.30;;;6.40;;
1777;SDS011;71547;50.146;8.174;2024-02-21T06:41:27;14.15;;;6.05;;
1777;SDS011;71547;50.146;8.174;2024-02-21T06:43:54;10.85;;;5.50;;
1777;SDS011;71547;50.146;8.174;2024-02-21T06:46:22;8.82;;;5.38;;
1777;SDS011;71547;50.146;8.174;2024-02-21T06:48:54;10.48;;;5.43;;
1777;SDS011;71547;50.146;8.174;2024-02-21T06:51:29;9.30;;;5.90;;
1777;SDS011;71547;50.146;8.174;2024-02-21T06:53:57;11.77;;;5.47;;
1777;SDS011;71547;50.146;8.174;2024-02-21T06:56:26;15.80;;;5.55;;
1777;SDS011;71547;50.146;8.174;2024-02-21T06:59:00;10.15;;;5.05;;
1777;SDS011;71547;50.146;8.174;2024-02-21T07:01:27;13.63;;;6.60;;
1777;SDS011;71547;50.146;8.174;2024-02-21T07:03:56;16.50;;;6.38;;
1777;SDS011;71547;50.146;8.174;2024-02-21T07:06:23;8.27;;;4.93;;
1777;SDS011;71547;50.146;8.174;2024-02-21T07:08:51;11.15;;;5.63;;
1777;SDS011;71547;50.146;8.174;2024-02-21T07:11:18;14.88;;;4.97;;
1777;SDS011;71547;50.146;8.174;2024-02-21T07:13:49;12.15;;;5.25;;
1777;SDS011;71547;50.146;8.174;2024-02-21T07:16:18;7.65;;;5.00;;
1777;SDS011;71547;50.146;8.174;2024-02-21T07:18:45;9.35;;;4.40;;
1777;SDS011;71547;50.146;8.174;2024-02-21T07:21:12;7.97;;;4.63;;
1777;SDS011;71547;50.146;8.174;2024-02-21T07:23:41;9.90;;;4.68;;
1777;SDS011;71547;50.146;8.174;2024-02-21T07:26:09;6.40;;;5.05;;
1777;SDS011;71547;50.146;8.174;2024-02-21T07:28:37;6.25;;;4.38;;
1777;SDS011;71547;50.146;8.174;2024-02-21T07:31:05;6.28;;;5.18;;
1777;SDS011;71547;50.146;8.174;2024-02-21T07:33:43;11.57;;;5.10;;
1777;SDS011;71547;50.146;8.174;2024-02-21T07:36:11;10.35;;;5.05;;
1777;SDS011;71547;50.146;8.174;2024-02-21T07:38:51;12.15;;;4.70;;
1777;SDS011;71547;50.146;8.174;2024-02-21T07:41:18;9.15;;;5.07;;
1777;SDS011;71547;50.146;8.174;2024-02-21T07:44:01;14.50;;;6.13;;
1777;SDS011;71547;50.146;8.174;2024-02-21T07:46:31;9.00;;;5.13;;
1777;SDS011;71547;50.146;8.174;2024-02-21T07:49:00;11.23;;;5.70;;
1777;SDS011;71547;50.146;8.174;2024-02-21T07:51:29;5.60;;;4.30;;
1777;SDS011;71547;50.146;8.174;2024-02-21T07:53:56;4.45;;;3.97;;
1777;SDS011;71547;50.146;8.174;2024-02-21T07:56:23;10.93;;;4.75;;
1777;SDS011;71547;50.146;8.174;2024-02-21T07:58:53;6.60;;;4.63;;
1777;SDS011;71547;50.146;8.174;2024-02-21T08:01:21;8.07;;;4.55;;
1777;SDS011;71547;50.146;8.174;2024-02-21T08:03:50;6.93;;;3.95;;
1777;SDS011;71547;50.146;8.174;2024-02-21T08:06:17;6.10;;;4.55;;
1777;SDS011;71547;50.146;8.174;2024-02-21T08:08:44;8.20;;;4.85;;
1777;SDS011;71547;50.146;8.174;2024-02-21T08:11:12;8.07;;;4.93;;
1777;SDS011;71547;50.146;8.174;2024-02-21T08:13:39;6.78;;;4.13;;
1777;SDS011;71547;50.146;8.174;2024-02-21T08:16:06;6.10;;;4.15;;
1777;SDS011;71547;50.146;8.174;2024-02-21T08:18:33;9.90;;;4.25;;
1777;SDS011;71547;50.146;8.174;2024-02-21T08:21:06;4.35;;;3.70;;
1777;SDS011;71547;50.146;8.174;2024-02-21T08:23:33;6.50;;;3.75;;
1777;SDS011;71547;50.146;8.174;2024-02-21T08:26:02;7.78;;;4.30;;
1777;SDS011;71547;50.146;8.174;2024-02-21T08:28:54;7.13;;;4.18;;
1777;SDS011;71547;50.146;8.174;2024-02-21T08:31:33;8.85;;;4.05;;
1777;SDS011;71547;50.146;8.174;2024-02-21T08:34:01;5.88;;;4.43;;
1777;SDS011;71547;50.146;8.174;2024-02-21T08:36:31;13.93;;;4.15;;
1777;SDS011;71547;50.146;8.174;2024-02-21T08:38:59;7.95;;;4.75;;
1777;SDS011;71547;50.146;8.174;2024-02-21T08:41:27;9.50;;;4.43;;
1777;SDS011;71547;50.146;8.174;2024-02-21T08:44:16;9.93;;;4.45;;
1777;SDS011;71547;50.146;8.174;2024-02-21T08:46:43;8.00;;;4.23;;
1777;SDS011;71547;50.146;8.174;2024-02-21T08:49:10;9.50;;;3.70;;
1777;SDS011;71547;50.146;8.174;2024-02-21T08:51:39;6.13;;;4.20;;
1777;SDS011;71547;50.146;8.174;2024-02-21T08:54:06;8.27;;;4.30;;
1777;SDS011;71547;50.146;8.174;2024-02-21T08:56:34;10.67;;;4.80;;
1777;SDS011;71547;50.146;8.174;2024-02-21T08:59:01;4.20;;;3.80;;
1777;SDS011;71547;50.146;8.174;2024-02-21T09:01:28;6.40;;;4.10;;
1777;SDS011;71547;50.146;8.174;2024-02-21T09:03:56;7.87;;;4.07;;
1777;SDS011;71547;50.146;8.174;2024-02-21T09:06:23;11.00;;;4.50;;
1777;SDS011;71547;50.146;8.174;2024-02-21T09:08:52;13.73;;;4.03;;
1777;SDS011;71547;50.146;8.174;2024-02-21T09:11:19;6.53;;;4.75;;
1777;SDS011;71547;50.146;8.174;2024-02-21T09:13:46;8.60;;;4.57;;
1777;SDS011;71547;50.146;8.174;2024-02-21T09:16:13;11.33;;;5.40;;
1777;SDS011;71547;50.146;8.174;2024-02-21T09:18:41;15.00;;;5.47;;
1777;SDS011;71547;50.146;8.174;2024-02-21T09:21:08;5.77;;;3.37;;
1777;SDS011;71547;50.146;8.174;2024-02-21T09:23:37;15.15;;;5.05;;
1777;SDS011;71547;50.146;8.174;2024-02-21T09:26:06;9.77;;;4.83;;
1777;SDS011;71547;50.146;8.174;2024-02-21T09:28:36;8.10;;;4.50;;
1777;SDS011;71547;50.146;8.174;2024-02-21T09:31:03;8.13;;;4.63;;
1777;SDS011;71547;50.146;8.174;2024-02-21T09:33:30;6.07;;;4.50;;
1777;SDS011;71547;50.146;8.174;2024-02-21T09:35:58;8.20;;;5.00;;
1777;SDS011;71547;50.146;8.174;2024-02-21T09:38:26;9.67;;;5.47;;
1777;SDS011;71547;50.146;8.174;2024-02-21T09:40:54;8.97;;;5.20;;
1777;SDS011;71547;50.146;8.174;2024-02-21T09:43:31;8.80;;;6.47;;
1777;SDS011;71547;50.146;8.174;2024-02-21T09:46:01;14.70;;;5.80;;
1777;SDS011;71547;50.146;8.174;2024-02-21T09:48:30;13.93;;;7.17;;
1777;SDS011;71547;50.146;8.174;2024-02-21T09:51:11;9.33;;;6.40;;
1777;SDS011;71547;50.146;8.174;2024-02-21T09:53:40;8.40;;;6.40;;
1777;SDS011;71547;50.146;8.174;2024-02-21T09:56:23;13.20;;;7.50;;
1777;SDS011;71547;50.146;8.174;2024-02-21T09:58:52;10.03;;;6.83;;
1777;SDS011;71547;50.146;8.174;2024-02-21T10:01:19;11.50;;;6.30;;
1777;SDS011;71547;50.146;8.174;2024-02-21T10:04:00;13.53;;;7.30;;
1777;SDS011;71547;50.146;8.174;2024-02-21T10:06:29;10.23;;;6.90;;
1777;SDS011;71547;50.146;8.174;2024-02-21T10:08:56;11.30;;;6.93;;
1777;SDS011;71547;50.146;8.174;2024-02-21T10:11:24;22.20;;;7.20;;
1777;SDS011;71547;50.146;8.174;2024-02-21T10:14:03;10.93;;;7.93;;
1777;SDS011;71547;50.146;8.174;2024-02-21T10:16:34;11.90;;;8.20;;
1777;SDS011;71547;50.146;8.174;2024-02-21T10:19:01;17.90;;;8.57;;
1777;SDS011;71547;50.146;8.174;2024-02-21T10:21:30;15.37;;;8.10;;
1777;SDS011;71547;50.146;8.174;2024-02-21T10:23:57;9.67;;;7.53;;
1777;SDS011;71547;50.146;8.174;2024-02-21T10:26:24;15.53;;;8.00;;
1777;SDS011;71547;50.146;8.174;2024-02-21T10:28:51;9.73;;;6.70;;
1777;SDS011;71547;50.146;8.174;2024-02-21T10:31:22;10.33;;;7.40;;
1777;SDS011;71547;50.146;8.174;2024-02-21T10:33:55;9.60;;;6.73;;
1777;SDS011;71547;50.146;8.174;2024-02-21T10:36:30;9.27;;;8.17;;
1777;SDS011;71547;50.146;8.174;2024-02-21T10:38:57;16.90;;;6.97;;
1777;SDS011;71547;50.146;8.174;2024-02-21T10:41:25;12.10;;;6.93;;
1777;SDS011;71547;50.146;8.174;2024-02-21T10:43:55;11.00;;;6.60;;
1777;SDS011;71547;50.146;8.174;2024-02-21T10:46:25;9.67;;;6.53;;
1777;SDS011;71547;50.146;8.174;2024-02-21T10:49:03;14.53;;;6.30;;
1777;SDS011;71547;50.146;8.174;2024-02-21T10:51:43;15.53;;;6.97;;
1777;SDS011;71547;50.146;8.174;2024-02-21T10:54:13;9.63;;;6.80;;
1777;SDS011;71547;50.146;8.174;2024-02-21T10:57:01;8.40;;;5.77;;
1777;SDS011;71547;50.146;8.174;2024-02-21T10:59:30;11.67;;;6.73;;
1777;SDS011;71547;50.146;8.174;2024-02-21T11:02:31;11.63;;;6.67;;
1777;SDS011;71547;50.146;8.174;2024-02-21T11:05:01;10.00;;;6.13;;
1777;SDS011;71547;50.146;8.174;2024-02-21T11:07:35;17.00;;;6.33;;
1777;SDS011;71547;50.146;8.174;2024-02-21T11:10:04;11.97;;;6.50;;
1777;SDS011;71547;50.146;8.174;2024-02-21T11:12:46;14.73;;;6.20;;
1777;SDS011;71547;50.146;8.174;2024-02-21T11:15:13;11.57;;;6.50;;
1777;SDS011;71547;50.146;8.174;2024-02-21T11:17:42;11.07;;;6.40;;
1777;SDS011;71547;50.146;8.174;2024-02-21T11:20:33;8.63;;;6.47;;
1777;SDS011;71547;50.146;8.174;2024-02-21T11:23:01;11.87;;;6.20;;
1777;SDS011;71547;50.146;8.174;2024-02-21T11:25:29;9.00;;;5.70;;
1777;SDS011;71547;50.146;8.174;2024-02-21T11:28:01;15.27;;;5.80;;
1777;SDS011;71547;50.146;8.174;2024-02-21T11:30:30;7.13;;;5.87;;
1777;SDS011;71547;50.146;8.174;2024-02-21T11:33:02;8.10;;;5.40;;
1777;SDS011;71547;50.146;8.174;2024-02-21T11:35:33;7.43;;;5.80;;
1777;SDS011;71547;50.146;8.174;2024-02-21T11:38:07;8.30;;;5.90;;
1777;SDS011;71547;50.146;8.174;2024-02-21T11:40:38;6.03;;;4.87;;
1777;SDS011;71547;50.146;8.174;2024-02-21T11:43:06;12.93;;;6.13;;
1777;SDS011;71547;50.146;8.174;2024-02-21T11:45:33;9.70;;;5.10;;
1777;SDS011;71547;50.146;8.174;2024-02-21T11:48:02;12.40;;;5.57;;
1777;SDS011;71547;50.146;8.174;2024-02-21T11:50:33;8.27;;;5.10;;
1777;SDS011;71547;50.146;8.174;2024-02-21T11:53:02;6.20;;;4.70;;
1777;SDS011;71547;50.146;8.174;2024-02-21T11:55:29;13.83;;;5.50;;
1777;SDS011;71547;50.146;8.174;2024-02-21T11:57:57;5.73;;;4.20;;
1777;SDS011;71547;50.146;8.174;2024-02-21T12:00:25;7.87;;;4.07;;
1777;SDS011;71547;50.146;8.174;2024-02-21T12:02:52;10.27;;;5.03;;
1777;SDS011;71547;50.146;8.174;2024-02-21T12:05:23;8.70;;;5.03;;
1777;SDS011;71547;50.146;8.174;2024-02-21T12:07:55;12.20;;;4.47;;
1777;SDS011;71547;50.146;8.174;2024-02-21T12:10:25;8.00;;;5.10;;
1777;SDS011;71547;50.146;8.174;2024-02-21T12:13:04;9.10;;;5.50;;
1777;SDS011;71547;50.146;8.174;2024-02-21T12:15:34;8.10;;;4.97;;
1777;SDS011;71547;50.146;8.174;2024-02-21T12:18:01;19.83;;;5.70;;
1777;SDS011;71547;50.146;8.174;2024-02-21T12:20:31;7.70;;;4.93;;
1777;SDS011;71547;50.146;8.174;2024-02-21T12:23:00;10.17;;;5.10;;
1777;SDS011;71547;50.146;8.174;2024-02-21T12:25:27;6.80;;;5.37;;
1777;SDS011;71547;50.146;8.174;2024-02-21T12:27:55;8.23;;;5.97;;
1777;SDS011;71547;50.146;8.174;2024-02-21T12:30:22;7.40;;;4.77;;
1777;SDS011;71547;50.146;8.174;2024-02-21T12:32:50;6.63;;;5.40;;
1777;SDS011;71547;50.146;8.174;2024-02-21T12:35:17;7.40;;;5.40;;
1777;SDS011;71547;50.146;8.174;2024-02-21T12:37:47;14.43;;;5.90;;
1777;SDS011;71547;50.146;8.174;2024-02-21T12:40:14;8.63;;;5.40;;
1777;SDS011;71547;50.146;8.174;2024-02-21T12:42:42;10.83;;;5.10;;
1777;SDS011;71547;50.146;8.174;2024-02-21T12:45:12;10.07;;;4.40;;
1777;SDS011;71547;50.146;8.174;2024-02-21T12:47:42;6.67;;;4.70;;
1777;SDS011;71547;50.146;8.174;2024-02-21T12:50:09;9.77;;;5.00;;
1777;SDS011;71547;50.146;8.174;2024-02-21T12:52:37;10.43;;;4.33;;
1777;SDS011;71547;50.146;8.174;2024-02-21T12:55:06;6.60;;;3.83;;
1777;SDS011;71547;50.146;8.174;2024-02-21T12:57:37;6.70;;;4.23;;
1777;SDS011;71547;50.146;8.174;2024-02-21T13:00:04;8.80;;;4.13;;
1777;SDS011;71547;50.146;8.174;2024-02-21T13:02:35;8.50;;;4.30;;
1777;SDS011;71547;50.146;8.174;2024-02-21T13:05:02;4.00;;;3.53;;
1777;SDS011;71547;50.146;8.174;2024-02-21T13:07:31;10.83;;;3.53;;
1777;SDS011;71547;50.146;8.174;2024-02-21T13:09:59;8.10;;;3.87;;
1777;SDS011;71547;50.146;8.174;2024-02-21T13:12:28;7.73;;;3.60;;
1777;SDS011;71547;50.146;8.174;2024-02-21T13:15:02;6.53;;;3.97;;
1777;SDS011;71547;50.146;8.174;2024-02-21T13:17:31;8.83;;;4.10;;
1777;SDS011;71547;50.146;8.174;2024-02-21T13:19:59;6.90;;;4.40;;
1777;SDS011;71547;50.146;8.174;2024-02-21T13:22:27;9.03;;;3.60;;
1777;SDS011;71547;50.146;8.174;2024-02-21T13:24:54;6.03;;;3.50;;
1777;SDS011;71547;50.146;8.174;2024-02-21T13:27:24;5.27;;;3.30;;
1777;SDS011;71547;50.146;8.174;2024-02-21T13:29:52;5.37;;;3.33;;
1777;SDS011;71547;50.146;8.174;2024-02-21T13:32:20;7.63;;;3.37;;
1777;SDS011;71547;50.146;8.174;2024-02-21T13:34:47;9.47;;;3.90;;
1777;SDS011;71547;50.146;8.174;2024-02-21T13:37:15;4.70;;;3.87;;
1777;SDS011;71547;50.146;8.174;2024-02-21T13:39:42;8.43;;;4.07;;
1777;SDS011;71547;50.146;8.174;2024-02-21T13:42:10;6.50;;;3.77;;
1777;SDS011;71547;50.146;8.174;2024-02-21T13:44:37;8.83;;;4.20;;
1777;SDS011;71547;50.146;8.174;2024-02-21T13:47:06;4.47;;;3.00;;
1777;SDS011;71547;50.146;8.174;2024-02-21T13:49:34;5.80;;;3.70;;
1777;SDS011;71547;50.146;8.174;2024-02-21T13:52:02;12.90;;;4.20;;
1777;SDS011;71547;50.146;8.174;2024-02-21T13:54:29;5.73;;;3.70;;
1777;SDS011;71547;50.146;8.174;2024-02-21T13:56:57;4.87;;;3.00;;
1777;SDS011;71547;50.146;8.174;2024-02-21T13:59:24;13.70;;;3.57;;
1777;SDS011;71547;50.146;8.174;2024-02-21T14:01:52;5.80;;;3.40;;
1777;SDS011;71547;50.146;8.174;2024-02-21T14:04:21;7.40;;;3.60;;
1777;SDS011;71547;50.146;8.174;2024-02-21T14:06:48;7.67;;;3.57;;
1777;SDS011;71547;50.146;8.174;2024-02-21T14:09:16;8.07;;;3.80;;
1777;SDS011;71547;50.146;8.174;2024-02-21T14:11:43;13.33;;;4.53;;
1777;SDS011;71547;50.146;8.174;2024-02-21T14:14:11;5.40;;;3.23;;
1777;SDS011;71547;50.146;8.174;2024-02-21T14:16:43;4.83;;;3.80;;
1777;SDS011;71547;50.146;8.174;2024-02-21T14:19:12;4.90;;;4.00;;
1777;SDS011;71547;50.146;8.174;2024-02-21T14:21:41;5.90;;;3.40;;
1777;SDS011;71547;50.146;8.174;2024-02-21T14:24:08;7.73;;;3.90;;
1777;SDS011;71547;50.146;8.174;2024-02-21T14:26:35;6.60;;;4.27;;
1777;SDS011;71547;50.146;8.174;2024-02-21T14:29:03;8.70;;;3.80;;
1777;SDS011;71547;50.146;8.174;2024-02-21T14:31:31;5.20;;;4.10;;
1777;SDS011;71547;50.146;8.174;2024-02-21T14:33:58;8.23;;;3.80;;
1777;SDS011;71547;50.146;8.174;2024-02-21T14:36:26;9.23;;;3.67;;
1777;SDS011;71547;50.146;8.174;2024-02-21T14:38:55;5.23;;;3.03;;
1777;SDS011;71547;50.146;8.174;2024-02-21T14:41:22;8.20;;;3.80;;
1777;SDS011;71547;50.146;8.174;2024-02-21T14:43:50;5.00;;;3.67;;
1777;SDS011;71547;50.146;8.174;2024-02-21T14:46:18;14.87;;;4.73;;
1777;SDS011;71547;50.146;8.174;2024-02-21T14:48:45;6.33;;;4.33;;
1777;SDS011;71547;50.146;8.174;2024-02-21T14:51:12;4.33;;;3.13;;
1777;SDS011;71547;50.146;8.174;2024-02-21T14:53:39;7.50;;;3.40;;
1777;SDS011;71547;50.146;8.174;2024-02-21T14:56:13;4.57;;;3.13;;
1777;SDS011;71547;50.146;8.174;2024-02-21T14:58:41;7.00;;;3.30;;
1777;SDS011;71547;50.146;8.174;2024-02-21T15:01:08;8.10;;;3.33;;
1777;SDS011;71547;50.146;8.174;2024-02-21T15:03:35;3.10;;;2.60;;
1777;SDS011;71547;50.146;8.174;2024-02-21T15:06:20;4.63;;;2.90;;
1777;SDS011;71547;50.146;8.174;2024-02-21T15:08:52;6.77;;;3.60;;